createdAt,value
2022-09-27T04:00:48.976Z,13.60
2022-09-27T04:03:51.754Z,13.60
2022-09-27T04:06:54.470Z,13.15
2022-09-27T04:09:57.690Z,13.20
2022-09-27T04:13:00.467Z,13.41
2022-09-27T04:16:03.485Z,13.39
2022-09-27T04:19:07.582Z,13.49
2022-09-27T04:22:15.942Z,13.63
2022-09-27T04:25:19.797Z,13.55
2022-09-27T04:28:22.654Z,13.52
2022-09-27T04:31:25.026Z,13.53
2022-09-27T04:34:47.547Z,13.61
2022-09-27T04:37:49.727Z,13.67
2022-09-27T04:40:52.159Z,13.70
2022-09-27T04:44:00.227Z,13.72
2022-09-27T04:47:02.568Z,13.73
2022-09-27T04:50:05.049Z,13.77
2022-09-27T04:53:07.396Z,13.81
2022-09-27T04:56:10.063Z,13.88
2022-09-27T04:59:12.882Z,13.89
2022-09-27T05:02:15.428Z,13.98
2022-09-27T05:05:18.553Z,14.07
2022-09-27T05:08:21.083Z,14.15
2022-09-27T05:11:28.478Z,14.23
2022-09-27T05:14:39.944Z,14.20
2022-09-27T05:17:42.467Z,14.09
2022-09-27T05:20:53.341Z,14.20
2022-09-27T05:23:56.273Z,14.29
2022-09-27T05:26:58.606Z,14.12
2022-09-27T05:30:01.924Z,14.20
2022-09-27T05:33:06.547Z,14.21
2022-09-27T05:36:12.083Z,14.29
2022-09-27T05:39:16.642Z,14.30
2022-09-27T05:42:19.581Z,14.25
2022-09-27T05:45:23.401Z,14.28
2022-09-27T05:48:26.292Z,14.34
2022-09-27T05:51:32.238Z,14.29
2022-09-27T05:54:35.734Z,14.29
2022-09-27T05:57:39.433Z,14.31
2022-09-27T06:00:43.434Z,14.20
2022-09-27T06:03:47.996Z,14.30
2022-09-27T06:06:50.765Z,14.39
2022-09-27T06:09:53.235Z,14.49
2022-09-27T06:13:03.665Z,14.54
2022-09-27T06:16:09.842Z,14.49
2022-09-27T06:19:13.010Z,14.51
2022-09-27T06:22:15.690Z,14.54
2022-09-27T06:25:18.534Z,14.46
2022-09-27T06:28:25.572Z,14.40
2022-09-27T06:31:30.595Z,14.36
2022-09-27T06:34:33.946Z,14.40
2022-09-27T06:37:35.982Z,14.44
2022-09-27T06:40:38.352Z,14.55
2022-09-27T06:43:40.672Z,14.46
2022-09-27T06:46:43.494Z,14.64
2022-09-27T06:49:47.504Z,14.77
2022-09-27T06:52:50.716Z,14.82
2022-09-27T06:55:55.653Z,14.87
2022-09-27T06:59:16.700Z,14.88
2022-09-27T07:02:27.876Z,14.90
2022-09-27T07:05:31.113Z,14.96
2022-09-27T07:08:35.727Z,15.07
2022-09-27T07:11:38.162Z,15.07
2022-09-27T07:14:40.231Z,14.97
2022-09-27T07:17:46.132Z,14.97
2022-09-27T07:20:48.196Z,15.07
2022-09-27T07:23:51.040Z,15.02
2022-09-27T07:26:53.279Z,15.01
2022-09-27T07:29:55.894Z,15.10
2022-09-27T07:33:00.908Z,15.11
2022-09-27T07:36:08.292Z,15.08
2022-09-27T07:39:11.071Z,15.11
2022-09-27T07:42:15.703Z,15.18
2022-09-27T07:45:18.469Z,15.36
2022-09-27T07:48:21.999Z,15.31
2022-09-27T07:51:24.186Z,15.39
2022-09-27T07:54:26.617Z,15.47
2022-09-27T07:57:30.089Z,15.50
2022-09-27T08:00:32.909Z,15.50
2022-09-27T08:03:36.100Z,15.44
2022-09-27T08:06:38.558Z,15.51
2022-09-27T08:09:41.124Z,15.65
2022-09-27T08:12:43.703Z,15.67
2022-09-27T08:15:46.262Z,15.58
2022-09-27T08:18:48.501Z,15.49
2022-09-27T08:21:58.720Z,15.41
2022-09-27T08:25:04.101Z,15.39
2022-09-27T08:28:06.561Z,15.36
2022-09-27T08:31:08.758Z,15.37
2022-09-27T08:34:12.322Z,15.44
2022-09-27T08:37:14.757Z,15.46
2022-09-27T08:40:17.718Z,15.45
2022-09-27T08:43:32.933Z,15.54
2022-09-27T08:47:00.635Z,15.56
2022-09-27T08:50:09.001Z,15.53
2022-09-27T08:53:14.026Z,15.53
2022-09-27T08:56:21.136Z,15.48
2022-09-27T08:59:28.586Z,15.46
2022-09-27T09:02:31.146Z,15.47
2022-09-27T09:05:35.599Z,15.54
2022-09-27T09:09:19.885Z,15.62
2022-09-27T09:12:48.610Z,15.51
2022-09-27T09:16:15.930Z,15.56
2022-09-27T09:19:26.673Z,15.61
2022-09-27T09:22:43.153Z,15.66
2022-09-27T09:25:51.841Z,15.59
2022-09-27T09:29:07.768Z,15.42
2022-09-27T09:32:28.693Z,15.49
2022-09-27T09:35:41.489Z,15.55
2022-09-27T09:38:56.011Z,15.64
2022-09-27T09:42:13.449Z,15.54
2022-09-27T09:45:22.767Z,15.56
2022-09-27T09:48:43.358Z,15.72
2022-09-27T09:51:52.905Z,15.85
2022-09-27T09:55:03.553Z,15.80
2022-09-27T09:58:33.409Z,15.85
2022-09-27T10:01:44.455Z,15.89
2022-09-27T10:04:46.814Z,15.81
2022-09-27T10:07:51.338Z,15.89
2022-09-27T10:10:53.863Z,16.00
2022-09-27T10:13:58.342Z,15.92
2022-09-27T10:17:04.079Z,15.95
2022-09-27T10:20:07.427Z,15.90
2022-09-27T10:23:15.216Z,15.97
2022-09-27T10:26:19.866Z,15.96
2022-09-27T10:29:37.364Z,15.97
2022-09-27T10:32:42.183Z,15.96
2022-09-27T10:35:49.572Z,16.00
2022-09-27T10:38:54.720Z,15.99
2022-09-27T10:41:57.833Z,15.95
2022-09-27T10:45:26.838Z,16.10
2022-09-27T10:48:29.316Z,16.12
2022-09-27T10:51:31.905Z,16.15
2022-09-27T10:54:37.488Z,16.13
2022-09-27T10:57:44.308Z,16.16
2022-09-27T11:01:03.607Z,16.18
2022-09-27T11:04:20.495Z,16.23
2022-09-27T11:07:24.119Z,16.14
2022-09-27T11:10:36.296Z,16.20
2022-09-27T11:13:40.933Z,16.25
2022-09-27T11:16:58.549Z,16.26
2022-09-27T11:20:25.836Z,16.43
2022-09-27T11:23:48.941Z,16.43
2022-09-27T11:27:26.927Z,16.32
2022-09-27T11:30:42.386Z,16.30
2022-09-27T11:34:12.018Z,16.48
2022-09-27T11:37:20.594Z,16.56
2022-09-27T11:40:55.261Z,16.64
2022-09-27T11:44:09.800Z,16.71
2022-09-27T11:47:30.277Z,16.66
2022-09-27T11:50:59.904Z,16.65
2022-09-27T11:54:09.341Z,16.65
2022-09-27T11:57:26.997Z,16.60
2022-09-27T12:01:11.290Z,16.64
2022-09-27T12:04:48.142Z,16.67
2022-09-27T12:08:00.516Z,16.61
2022-09-27T12:11:15.030Z,16.64
2022-09-27T12:14:26.930Z,16.76
2022-09-27T12:17:35.929Z,16.90
2022-09-27T12:20:41.033Z,17.00
2022-09-27T12:23:49.448Z,17.02
2022-09-27T12:26:57.449Z,16.99
2022-09-27T12:30:00.954Z,17.01
2022-09-27T12:34:04.780Z,16.96
2022-09-27T12:37:21.915Z,16.93
2022-09-27T12:40:38.786Z,17.06
2022-09-27T12:43:49.009Z,16.91
2022-09-27T12:47:17.586Z,16.75
2022-09-27T12:50:46.128Z,16.84
2022-09-27T12:53:56.179Z,17.01
2022-09-27T12:57:18.642Z,17.06
2022-09-27T13:00:27.696Z,17.18
2022-09-27T13:03:32.776Z,17.14
2022-09-27T13:06:50.750Z,17.26
2022-09-27T13:10:24.781Z,17.38
2022-09-27T13:13:27.724Z,17.51
2022-09-27T13:16:30.187Z,17.43
2022-09-27T13:19:36.810Z,17.48
2022-09-27T13:22:40.254Z,17.44
2022-09-27T13:25:56.233Z,17.45
2022-09-27T13:29:03.132Z,17.38
2022-09-27T13:32:16.302Z,17.42
2022-09-27T13:35:25.542Z,17.52
2022-09-27T13:38:28.704Z,17.55
2022-09-27T13:41:46.673Z,17.56
2022-09-27T13:45:17.477Z,17.67
2022-09-27T13:48:25.418Z,17.72
2022-09-27T13:51:34.183Z,17.75
2022-09-27T13:54:41.649Z,17.77
2022-09-27T13:58:00.221Z,17.76
2022-09-27T14:01:16.098Z,17.75
2022-09-27T14:04:35.277Z,17.64
2022-09-27T14:07:42.095Z,17.57
2022-09-27T14:10:45.935Z,17.50
2022-09-27T14:13:49.792Z,17.50
2022-09-27T14:16:54.253Z,17.28
2022-09-27T14:19:57.338Z,16.39
2022-09-27T14:23:01.178Z,16.11
2022-09-27T14:26:03.932Z,15.77
2022-09-27T14:29:19.419Z,15.63
2022-09-27T14:32:31.538Z,15.49
2022-09-27T14:35:53.358Z,15.28
2022-09-27T14:38:58.729Z,15.20
2022-09-27T14:42:04.607Z,15.10
2022-09-27T14:45:20.478Z,15.15
2022-09-27T14:48:28.089Z,15.27
2022-09-27T14:51:31.891Z,15.23
2022-09-27T14:54:34.206Z,15.25
2022-09-27T14:57:37.085Z,15.19
2022-09-27T15:00:41.347Z,15.31
2022-09-27T15:03:45.511Z,15.49
2022-09-27T15:06:49.580Z,15.61
2022-09-27T15:09:51.991Z,15.58
2022-09-27T15:12:59.760Z,15.56
2022-09-27T15:16:17.225Z,15.59
2022-09-27T15:19:29.498Z,15.51
2022-09-27T15:22:49.613Z,15.65
2022-09-27T15:26:16.345Z,15.63
2022-09-27T15:29:23.882Z,15.45
2022-09-27T15:32:28.929Z,15.42
2022-09-27T15:35:34.793Z,15.19
